Time;durP1;ratioP1;P1;durP2;ratioP2;P2;SDS_P1;SDS_P2;PMS_P1;PMS_P2;Temp;Humidity;BMP_temperature;BMP_pressure;BME280_temperature;BME280_humidity;BME280_pressure;Samples;Min_cycle;Max_cycle;Signal;HPM_P1;HPM_P2
2022/09/24 00:02:16;;;;;;;9.40;4.67;;;;;;;11.51;100.00;100699.47;5026446;28;20439;-84
2022/09/24 00:04:49;;;;;;;7.70;4.60;;;;;;;11.56;100.00;100702.97;5037905;28;20429;-84
2022/09/24 00:07:22;;;;;;;8.52;4.55;;;;;;;11.55;100.00;100695.88;5031980;28;20462;-84
2022/09/24 00:09:56;;;;;;;9.85;4.93;;;;;;;11.56;100.00;100705.69;5042306;28;20427;-84
2022/09/24 00:12:29;;;;;;;7.68;4.80;;;;;;;11.56;100.00;100699.44;5030151;28;21322;-84
2022/09/24 00:14:57;;;;;;;7.72;4.78;;;;;;;11.57;100.00;100701.06;5059128;28;20433;-84
2022/09/24 00:17:31;;;;;;;8.43;5.10;;;;;;;11.42;100.00;100688.41;5059763;28;20462;-84
2022/09/24 00:19:59;;;;;;;8.75;5.00;;;;;;;11.45;100.00;100690.53;5028552;28;20922;-84
2022/09/24 00:22:27;;;;;;;8.20;4.83;;;;;;;11.51;100.00;100692.09;5048042;28;20448;-84
2022/09/24 00:27:46;;;;;;;8.73;5.00;;;;;;;11.43;100.00;100686.47;5033054;28;20425;-84
2022/09/24 00:30:19;;;;;;;9.60;5.25;;;;;;;11.35;100.00;100687.88;5041272;28;20437;-84
2022/09/24 00:32:48;;;;;;;8.63;5.00;;;;;;;11.26;100.00;100684.16;5026124;28;20444;-83
2022/09/24 00:35:23;;;;;;;8.35;4.72;;;;;;;11.29;100.00;100689.84;5048025;28;20432;-84
2022/09/24 00:37:51;;;;;;;7.87;4.53;;;;;;;11.27;100.00;100669.41;5057337;28;20875;-84
2022/09/24 00:40:20;;;;;;;7.55;4.80;;;;;;;11.28;100.00;100674.59;5034146;28;20437;-84
2022/09/24 00:42:58;;;;;;;7.10;4.30;;;;;;;11.26;100.00;100665.91;5030567;28;20786;-84
2022/09/24 00:45:30;;;;;;;8.00;4.40;;;;;;;11.32;100.00;100672.91;5026861;28;20440;-84
2022/09/24 00:48:04;;;;;;;8.25;4.80;;;;;;;11.31;100.00;100679.47;5047618;28;20428;-84
2022/09/24 00:50:34;;;;;;;8.02;4.53;;;;;;;11.32;100.00;100680.28;5051122;28;20442;-84
2022/09/24 00:53:12;;;;;;;9.95;4.93;;;;;;;11.28;100.00;100680.03;5046247;28;20432;-83
2022/09/24 00:55:50;;;;;;;9.60;4.80;;;;;;;11.21;100.00;100674.09;5034545;28;20427;-84
2022/09/24 00:58:23;;;;;;;8.13;4.80;;;;;;;11.26;100.00;100673.25;5032735;28;20434;-84
2022/09/24 01:01:01;;;;;;;9.05;4.85;;;;;;;11.24;100.00;100676.25;5024005;28;20446;-83
2022/09/24 01:03:39;;;;;;;7.47;4.88;;;;;;;11.16;100.00;100677.69;5058908;28;20429;-83
2022/09/24 01:06:08;;;;;;;9.77;5.07;;;;;;;11.16;100.00;100668.72;5046745;28;20432;-84
2022/09/24 01:08:43;;;;;;;8.50;5.15;;;;;;;11.18;100.00;100661.84;5038935;28;20469;-84
2022/09/24 01:11:25;;;;;;;8.40;5.13;;;;;;;11.20;100.00;100667.84;5053096;28;20432;-83
2022/09/24 01:14:40;;;;;;;8.80;5.00;;;;;;;11.16;100.00;100660.53;5047811;28;20418;-84
2022/09/24 01:17:22;;;;;;;7.85;5.10;;;;;;;11.17;100.00;100651.25;5037948;28;20429;-83
2022/09/24 01:20:24;;;;;;;8.13;4.90;;;;;;;11.19;100.00;100657.25;5041278;28;20497;-84
2022/09/24 01:23:14;;;;;;;8.52;5.00;;;;;;;11.11;100.00;100664.09;5028803;28;20430;-83
2022/09/24 01:26:02;;;;;;;8.73;5.07;;;;;;;11.11;100.00;100661.38;5047543;28;20435;-83
2022/09/24 01:28:44;;;;;;;9.25;5.00;;;;;;;11.11;100.00;100657.84;5045636;28;21409;-84
2022/09/24 01:31:24;;;;;;;7.50;4.78;;;;;;;11.10;100.00;100661.66;5028697;28;20435;-83
2022/09/24 01:34:04;;;;;;;9.80;5.43;;;;;;;11.03;100.00;100651.09;5040766;28;20437;-83
2022/09/24 01:36:35;;;;;;;8.65;4.88;;;;;;;11.06;100.00;100659.50;5034652;28;20438;-83
2022/09/24 01:39:09;;;;;;;10.55;5.35;;;;;;;11.05;100.00;100659.81;5058505;28;20425;-83
2022/09/24 01:41:43;;;;;;;8.73;5.38;;;;;;;10.99;100.00;100650.84;5051418;28;20436;-84
2022/09/24 01:44:12;;;;;;;7.40;4.97;;;;;;;11.08;100.00;100647.53;5034453;28;20422;-83
2022/09/24 01:46:42;;;;;;;8.43;5.32;;;;;;;11.05;100.00;100648.91;5033151;28;20452;-84
2022/09/24 01:49:15;;;;;;;9.27;5.40;;;;;;;11.06;100.00;100642.34;5048987;28;20436;-83
2022/09/24 01:51:54;;;;;;;8.45;5.30;;;;;;;10.99;100.00;100634.53;5031097;28;20440;-84
2022/09/24 01:54:32;;;;;;;8.68;5.28;;;;;;;10.98;100.00;100642.94;5031330;28;20437;-83
2022/09/24 01:57:13;;;;;;;9.75;5.63;;;;;;;10.99;100.00;100641.84;5024851;28;20429;-83
2022/09/24 01:59:54;;;;;;;10.30;5.28;;;;;;;10.99;100.00;100641.84;5023277;28;20433;-83
2022/09/24 02:02:34;;;;;;;8.65;5.40;;;;;;;10.96;100.00;100639.69;5027678;28;20430;-84
2022/09/24 02:05:14;;;;;;;8.05;5.55;;;;;;;10.96;100.00;100640.50;5044916;28;20459;-83
2022/09/24 02:07:56;;;;;;;8.40;5.38;;;;;;;10.97;100.00;100642.16;5040373;28;20430;-83
2022/09/24 02:10:33;;;;;;;9.27;5.82;;;;;;;10.96;100.00;100637.78;5046302;28;20440;-83
2022/09/24 02:13:11;;;;;;;9.90;5.97;;;;;;;10.99;100.00;100642.69;5044760;28;20431;-83
2022/09/24 02:15:49;;;;;;;13.50;5.38;;;;;;;10.88;100.00;100633.78;5045151;28;20429;-84
2022/09/24 02:18:21;;;;;;;11.17;5.80;;;;;;;10.88;100.00;100632.94;5044632;28;20430;-84
2022/09/24 02:20:56;;;;;;;10.30;5.93;;;;;;;10.94;100.00;100631.81;5029086;28;20429;-84
2022/09/24 02:23:31;;;;;;;9.20;5.70;;;;;;;10.87;100.00;100623.97;5046094;28;20433;-84
2022/09/24 02:26:06;;;;;;;8.70;5.80;;;;;;;10.93;100.00;100638.34;5042879;28;20426;-84
2022/09/24 02:28:40;;;;;;;8.10;5.80;;;;;;;10.91;100.00;100637.84;5046228;28;20431;-83
2022/09/24 02:31:13;;;;;;;10.97;6.20;;;;;;;10.86;100.00;100635.16;5035781;28;20423;-84
2022/09/24 02:36:37;;;;;;;10.13;5.97;;;;;;;10.84;100.00;100630.00;5053932;28;20425;-84
2022/09/24 02:39:10;;;;;;;8.48;5.47;;;;;;;10.83;100.00;100633.78;5052270;28;20417;-83
2022/09/24 02:41:41;;;;;;;10.10;5.70;;;;;;;10.77;100.00;100623.22;5054681;28;20433;-84
2022/09/24 02:44:15;;;;;;;9.43;5.80;;;;;;;10.86;100.00;100641.41;5034208;28;20670;-84
2022/09/24 02:46:49;;;;;;;10.52;5.75;;;;;;;10.85;100.00;100638.97;5023266;28;20437;-84
2022/09/24 02:49:24;;;;;;;13.65;5.85;;;;;;;10.84;100.00;100635.44;5043954;28;20434;-84
2022/09/24 02:51:57;;;;;;;12.13;6.40;;;;;;;10.82;100.00;100643.06;5034831;28;20425;-84
2022/09/24 02:54:31;;;;;;;11.43;6.07;;;;;;;10.81;100.00;100638.72;5038501;28;20426;-84
2022/09/24 02:57:04;;;;;;;9.68;5.93;;;;;;;10.81;100.00;100640.63;5042909;28;20429;-85
2022/09/24 02:59:37;;;;;;;9.48;5.97;;;;;;;10.77;100.00;100631.38;5051867;28;20434;-84
2022/09/24 03:02:06;;;;;;;11.07;6.30;;;;;;;10.72;100.00;100618.63;5033768;28;20945;-84
2022/09/24 03:04:40;;;;;;;11.45;6.63;;;;;;;10.81;100.00;100635.16;5060305;28;20424;-84
2022/09/24 03:07:09;;;;;;;10.20;6.27;;;;;;;10.82;100.00;100629.44;5034784;28;20506;-84
2022/09/24 03:09:43;;;;;;;9.90;6.20;;;;;;;10.83;100.00;100633.78;5053871;28;20428;-84
2022/09/24 03:12:11;;;;;;;10.95;6.68;;;;;;;10.82;100.00;100631.38;5042374;28;20419;-83
2022/09/24 03:14:39;;;;;;;10.02;6.30;;;;;;;10.86;100.00;100629.69;5035534;28;20421;-84
2022/09/24 03:17:12;;;;;;;10.45;6.63;;;;;;;10.86;100.00;100635.16;5056007;28;20823;-83
2022/09/24 03:19:47;;;;;;;10.52;6.38;;;;;;;10.86;100.00;100630.50;5028804;28;20497;-84
2022/09/24 03:22:15;;;;;;;10.77;6.82;;;;;;;10.79;100.00;100629.22;5025066;28;20438;-83
2022/09/24 03:24:43;;;;;;;12.15;6.20;;;;;;;10.79;100.00;100626.50;5033971;28;20421;-84
2022/09/24 03:27:16;;;;;;;9.23;6.78;;;;;;;10.76;100.00;100618.88;5037275;28;20935;-84
2022/09/24 03:32:39;;;;;;;10.10;6.70;;;;;;;10.82;100.00;100632.16;5024484;28;20764;-83
2022/09/24 03:35:14;;;;;;;9.30;6.38;;;;;;;10.81;100.00;100635.16;5052000;28;20413;-84
2022/09/24 03:37:47;;;;;;;13.10;6.50;;;;;;;10.81;100.00;100633.28;5051517;28;20444;-83
2022/09/24 03:40:15;;;;;;;10.60;6.70;;;;;;;10.77;100.00;100634.94;5046772;28;20422;-84
2022/09/24 03:42:48;;;;;;;10.02;6.85;;;;;;;10.75;100.00;100628.94;5045136;28;20421;-83
2022/09/24 03:45:21;;;;;;;10.15;6.90;;;;;;;10.80;100.00;100628.09;5047721;28;20425;-84
2022/09/24 03:47:54;;;;;;;13.57;7.25;;;;;;;10.80;100.00;100623.47;5043979;28;20434;-83
2022/09/24 03:50:24;;;;;;;9.98;7.00;;;;;;;10.78;100.00;100627.56;5032937;28;20433;-83
2022/09/24 03:52:52;;;;;;;13.07;6.80;;;;;;;10.74;100.00;100623.78;5038628;28;20434;-84
2022/09/24 03:55:26;;;;;;;10.80;7.07;;;;;;;10.76;100.00;100621.59;5029689;28;20803;-84
2022/09/24 03:57:59;;;;;;;10.68;7.18;;;;;;;10.76;100.00;100624.31;5037864;28;20444;-84
2022/09/24 04:00:27;;;;;;;10.77;6.88;;;;;;;10.76;100.00;100624.31;5042117;28;20433;-84
2022/09/24 04:03:00;;;;;;;10.48;6.93;;;;;;;10.75;100.00;100623.50;5051115;28;20438;-83
2022/09/24 04:05:34;;;;;;;12.15;6.93;;;;;;;10.72;100.00;100616.72;5027706;28;20515;-84
2022/09/24 04:08:07;;;;;;;10.45;6.90;;;;;;;10.75;100.00;100620.78;5044363;28;20437;-84
2022/09/24 04:10:41;;;;;;;11.75;7.18;;;;;;;10.77;100.00;100618.63;5039436;28;20425;-84
2022/09/24 04:13:14;;;;;;;11.05;7.13;;;;;;;10.75;100.00;100614.53;5056468;28;20791;-83
2022/09/24 04:15:42;;;;;;;10.85;7.22;;;;;;;10.60;100.00;100599.91;5053003;28;20905;-84
2022/09/24 04:18:16;;;;;;;12.47;7.73;;;;;;;10.70;100.00;100612.66;5051399;28;20505;-84
2022/09/24 04:20:50;;;;;;;11.05;7.80;;;;;;;10.75;100.00;100619.97;5029992;28;20435;-83
2022/09/24 04:23:18;;;;;;;11.47;7.60;;;;;;;10.71;100.00;100617.81;5060501;28;20481;-84
2022/09/24 04:25:53;;;;;;;9.80;7.18;;;;;;;10.74;100.00;100610.19;5044137;28;20437;-85
2022/09/24 04:28:26;;;;;;;10.55;7.60;;;;;;;10.68;100.00;100615.66;5029186;28;20512;-84
2022/09/24 04:30:59;;;;;;;12.40;8.10;;;;;;;10.75;100.00;100626.22;5032971;28;20422;-84
2022/09/24 04:33:32;;;;;;;12.27;7.70;;;;;;;10.71;100.00;100612.34;5059032;28;20917;-84
2022/09/24 04:36:06;;;;;;;14.40;7.90;;;;;;;10.65;100.00;100602.63;5053852;28;20425;-83
2022/09/24 04:38:34;;;;;;;13.13;7.80;;;;;;;10.72;100.00;100622.16;5032458;28;20425;-84
2022/09/24 04:41:09;;;;;;;12.13;7.97;;;;;;;10.73;100.00;100609.38;5050299;28;20415;-84
2022/09/24 04:43:37;;;;;;;12.57;7.82;;;;;;;10.71;100.00;100608.84;5026247;28;20427;-84
2022/09/24 04:46:10;;;;;;;13.10;8.23;;;;;;;10.70;100.00;100604.47;5059816;28;20425;-83
2022/09/24 04:48:43;;;;;;;13.13;7.90;;;;;;;10.74;100.00;100605.53;5058889;28;20432;-84
2022/09/24 04:51:18;;;;;;;14.48;8.57;;;;;;;10.70;100.00;100610.75;5052291;28;20429;-84
2022/09/24 04:53:51;;;;;;;12.02;8.13;;;;;;;10.71;100.00;100609.63;5045265;28;20421;-84
2022/09/24 04:56:24;;;;;;;14.23;9.02;;;;;;;10.69;100.00;100611.03;5050199;28;20448;-84
2022/09/24 04:58:57;;;;;;;10.88;7.97;;;;;;;10.76;100.00;100614.25;5027407;28;20418;-84
2022/09/24 05:01:30;;;;;;;12.53;8.70;;;;;;;10.77;100.00;100609.63;5054007;28;20437;-84
2022/09/24 05:04:04;;;;;;;16.30;9.48;;;;;;;10.81;100.00;100606.06;5047983;28;21175;-84
2022/09/24 05:06:38;;;;;;;15.07;9.00;;;;;;;10.79;100.00;100610.97;5032114;28;20425;-84
2022/09/24 05:09:11;;;;;;;11.95;8.95;;;;;;;10.77;100.00;100607.72;5050223;28;20417;-83
2022/09/24 05:11:44;;;;;;;13.32;9.25;;;;;;;10.73;100.00;100612.09;5037995;28;20423;-84
2022/09/24 05:14:12;;;;;;;11.77;8.98;;;;;;;10.71;100.00;100606.13;5033517;28;20417;-83
2022/09/24 05:16:45;;;;;;;14.20;8.67;;;;;;;10.71;100.00;100611.56;5046323;28;20425;-84
2022/09/24 05:19:19;;;;;;;12.52;9.23;;;;;;;10.77;100.00;100602.28;5052498;28;20440;-84
2022/09/24 05:21:53;;;;;;;14.45;9.63;;;;;;;10.80;100.00;100609.03;5030720;28;20434;-84
2022/09/24 05:24:21;;;;;;;15.10;9.85;;;;;;;10.85;100.00;100611.72;5060280;28;20426;-84
2022/09/24 05:27:09;;;;;;;15.68;10.00;;;;;;;10.86;100.00;100611.44;5027118;28;20438;-84
2022/09/24 05:29:38;;;;;;;13.70;10.25;;;;;;;10.82;100.00;100606.88;5027121;28;20418;-83
2022/09/24 05:32:14;;;;;;;14.55;9.60;;;;;;;10.86;100.00;100606.00;5043891;28;20431;-84
2022/09/24 05:34:42;;;;;;;15.97;10.13;;;;;;;10.84;100.00;100604.66;5047186;28;20405;-84
2022/09/24 05:37:17;;;;;;;13.67;10.03;;;;;;;10.87;100.00;100607.63;5044210;28;20962;-84
2022/09/24 05:39:50;;;;;;;13.13;9.48;;;;;;;10.91;100.00;100597.00;5059749;28;20428;-84
2022/09/24 05:42:18;;;;;;;15.02;10.40;;;;;;;10.95;100.00;100603.50;5030981;28;20429;-83
2022/09/24 05:44:52;;;;;;;14.25;10.13;;;;;;;10.97;100.00;100606.75;5042081;28;20440;-83
2022/09/24 05:47:20;;;;;;;15.02;10.48;;;;;;;10.99;100.00;100606.47;5027711;28;20430;-83
2022/09/24 05:49:53;;;;;;;17.05;10.93;;;;;;;10.96;100.00;100604.31;5045396;28;20478;-83
2022/09/24 05:52:27;;;;;;;15.70;10.17;;;;;;;10.96;100.00;100602.38;5044545;28;20430;-84
2022/09/24 05:54:56;;;;;;;15.30;10.15;;;;;;;10.97;100.00;100609.47;5038824;28;20435;-83
2022/09/24 05:57:24;;;;;;;13.68;9.98;;;;;;;11.01;100.00;100612.44;5043612;28;20417;-84
2022/09/24 05:59:57;;;;;;;13.98;9.90;;;;;;;10.93;100.00;100613.06;5024732;28;20459;-83
2022/09/24 06:02:39;;;;;;;13.82;10.15;;;;;;;10.95;100.00;100603.50;5047404;28;20746;-84
2022/09/24 06:05:13;;;;;;;16.30;10.00;;;;;;;10.96;100.00;100613.28;5054277;28;20457;-83
2022/09/24 06:07:42;;;;;;;14.85;10.55;;;;;;;10.93;100.00;100615.78;5043619;28;20430;-84
2022/09/24 06:10:15;;;;;;;14.15;9.80;;;;;;;10.96;100.00;100612.47;5042541;28;20431;-83
2022/09/24 06:12:49;;;;;;;15.10;10.07;;;;;;;10.94;100.00;100618.22;5039539;28;20430;-84
2022/09/24 06:15:23;;;;;;;15.13;10.50;;;;;;;10.99;100.00;100612.72;5041143;28;20914;-84
2022/09/24 06:17:56;;;;;;;16.42;10.30;;;;;;;10.96;100.00;100612.47;5039134;28;20432;-83
2022/09/24 06:20:29;;;;;;;13.90;10.18;;;;;;;11.01;100.00;100620.63;5047564;28;20890;-84
2022/09/24 06:23:04;;;;;;;15.43;11.05;;;;;;;11.03;100.00;100613.78;5055835;28;20433;-84
2022/09/24 06:25:32;;;;;;;15.77;10.55;;;;;;;11.02;100.00;100616.78;5044788;28;20429;-84
2022/09/24 06:28:05;;;;;;;18.63;10.90;;;;;;;11.08;100.00;100618.38;5037472;28;20429;-84
2022/09/24 06:30:40;;;;;;;14.98;10.52;;;;;;;11.14;100.00;100627.31;5023539;28;20435;-84
2022/09/24 06:33:13;;;;;;;15.45;11.35;;;;;;;11.13;100.00;100623.78;5054221;28;20913;-84
2022/09/24 06:35:47;;;;;;;16.38;10.45;;;;;;;11.17;100.00;100621.28;5044380;28;20440;-84
2022/09/24 06:38:18;;;;;;;15.15;10.90;;;;;;;11.24;100.00;100619.03;5042343;28;20894;-84
2022/09/24 06:40:51;;;;;;;17.13;11.27;;;;;;;11.26;100.00;100621.50;5040257;28;20444;-84
2022/09/24 06:43:24;;;;;;;18.15;11.68;;;;;;;11.28;100.00;100624.75;5036024;28;20444;-84
2022/09/24 06:45:58;;;;;;;16.60;11.75;;;;;;;11.32;100.00;100625.81;5037952;28;20798;-84
2022/09/24 06:48:27;;;;;;;18.45;11.95;;;;;;;11.32;100.00;100632.03;5057193;28;20421;-83
2022/09/24 06:51:03;;;;;;;16.83;11.75;;;;;;;11.35;100.00;100625.22;5056951;28;20426;-84
2022/09/24 06:53:33;;;;;;;17.67;12.82;;;;;;;11.23;100.00;100617.44;5027760;28;20429;-84
2022/09/24 06:56:06;;;;;;;19.85;12.70;;;;;;;11.33;100.00;100624.72;5023398;28;20427;-84
2022/09/24 06:58:34;;;;;;;17.88;12.50;;;;;;;11.40;100.00;100617.00;5037456;28;20425;-83
2022/09/24 07:01:04;;;;;;;18.25;12.20;;;;;;;11.42;100.00;100625.72;5038730;28;20423;-88
2022/09/24 07:03:38;;;;;;;17.63;12.30;;;;;;;11.51;100.00;100623.97;5031148;28;20429;-83
2022/09/24 07:06:11;;;;;;;15.93;11.88;;;;;;;11.47;100.00;100619.41;5034513;28;20431;-81
2022/09/24 07:08:50;;;;;;;17.25;11.88;;;;;;;11.57;100.00;100632.91;5041247;28;20423;-84
2022/09/24 07:11:18;;;;;;;18.33;12.20;;;;;;;11.66;100.00;100627.66;5031276;28;20451;-83
2022/09/24 07:13:46;;;;;;;18.45;12.93;;;;;;;11.64;100.00;100633.41;5032384;28;20433;-84
2022/09/24 07:16:19;;;;;;;19.17;12.60;;;;;;;11.67;100.00;100629.28;5044737;28;20913;-84
2022/09/24 07:18:52;;;;;;;19.50;12.57;;;;;;;11.72;100.00;100634.69;5062907;28;20461;-83
2022/09/24 07:21:25;;;;;;;18.03;12.27;;;;;;;11.74;100.00;100636.03;5041689;28;20441;-84
2022/09/24 07:23:59;;;;;;;20.85;12.77;;;;;;;11.71;100.00;100636.59;5051587;28;20433;-83
2022/09/24 07:26:33;;;;;;;18.15;12.23;;;;;;;11.76;100.00;100629.47;5052419;28;20433;-84
2022/09/24 07:29:01;;;;;;;16.83;11.93;;;;;;;11.85;100.00;100634.00;5033721;28;20453;-85
2022/09/24 07:31:35;;;;;;;18.23;12.52;;;;;;;11.89;100.00;100642.41;5046763;28;20914;-84
2022/09/24 07:34:08;;;;;;;19.25;12.38;;;;;;;11.92;100.00;100641.84;5051403;28;20437;-84
2022/09/24 07:36:42;;;;;;;19.52;12.75;;;;;;;11.93;100.00;100643.44;5032369;28;20440;-85
2022/09/24 07:39:11;;;;;;;18.85;12.50;;;;;;;11.93;100.00;100640.72;5039933;28;20430;-84
2022/09/24 07:41:41;;;;;;;20.88;12.82;;;;;;;11.96;100.00;100645.66;5035279;28;20412;-84
2022/09/24 07:44:14;;;;;;;18.40;12.93;;;;;;;11.99;100.00;100638.81;5032699;28;20437;-85
2022/09/24 07:46:42;;;;;;;18.33;12.32;;;;;;;11.96;100.00;100640.19;5045583;28;20432;-84
2022/09/24 07:49:10;;;;;;;16.75;12.18;;;;;;;11.95;100.00;100648.66;5043648;28;21277;-82
2022/09/24 07:51:38;;;;;;;18.65;12.90;;;;;;;11.93;100.00;100634.47;5037625;28;20429;-85
2022/09/24 07:54:12;;;;;;;18.48;12.52;;;;;;;12.05;100.00;100643.88;5042281;28;20429;-85
2022/09/24 07:56:45;;;;;;;18.33;12.05;;;;;;;12.06;100.00;100640.06;5055684;28;20427;-84
2022/09/24 07:59:14;;;;;;;18.00;12.50;;;;;;;12.00;100.00;100637.69;5069991;28;20432;-84
2022/09/24 08:01:47;;;;;;;18.43;12.23;;;;;;;11.98;100.00;100632.50;5047492;28;20467;-85
2022/09/24 08:04:20;;;;;;;19.00;11.98;;;;;;;11.97;100.00;100647.25;5035339;28;20441;-85
2022/09/24 08:06:53;;;;;;;19.65;11.70;;;;;;;12.00;100.00;100634.94;5032131;28;20431;-85
2022/09/24 08:09:27;;;;;;;15.32;10.90;;;;;;;11.96;100.00;100647.53;5043241;28;20418;-84
2022/09/24 08:11:55;;;;;;;17.10;11.53;;;;;;;12.07;100.00;100646.34;5030484;28;21411;-85
2022/09/24 08:14:28;;;;;;;16.92;11.63;;;;;;;11.91;100.00;100638.28;5028530;28;20459;-85
2022/09/24 08:17:02;;;;;;;16.73;11.15;;;;;;;11.93;100.00;100648.91;5045047;28;20426;-85
2022/09/24 08:19:32;;;;;;;17.48;11.55;;;;;;;11.89;100.00;100648.69;5054703;28;20431;-86
2022/09/24 08:22:07;;;;;;;20.00;12.05;;;;;;;11.98;100.00;100654.34;5029427;28;20435;-85
2022/09/24 08:24:42;;;;;;;17.40;11.73;;;;;;;11.88;100.00;100646.25;5049071;28;20800;-84
2022/09/24 08:27:10;;;;;;;19.70;12.77;;;;;;;11.90;100.00;100647.59;5021561;28;20419;-84
2022/09/24 08:29:39;;;;;;;17.90;12.35;;;;;;;11.89;100.00;100650.56;5046814;28;20425;-84
2022/09/24 08:32:07;;;;;;;18.23;12.13;;;;;;;11.93;100.00;100650.81;5049737;28;20425;-84
2022/09/24 08:34:40;;;;;;;18.58;12.65;;;;;;;11.86;100.00;100653.88;5069595;28;20425;-84
2022/09/24 08:37:08;;;;;;;20.40;12.80;;;;;;;11.83;100.00;100636.19;5036852;28;20444;-84
2022/09/24 08:39:36;;;;;;;19.00;12.50;;;;;;;11.82;100.00;100640.03;5070933;28;20421;-85
2022/09/24 08:42:22;;;;;;;21.58;12.73;;;;;;;11.77;100.00;100648.25;5045838;28;21087;-85
2022/09/24 08:47:47;;;;;;;21.23;12.68;;;;;;;11.87;100.00;100648.16;5065197;28;20418;-86
2022/09/24 08:50:22;;;;;;;18.67;12.70;;;;;;;11.76;100.00;100660.25;5058915;28;20431;-86
2022/09/24 08:53:12;;;;;;;19.30;13.07;;;;;;;11.62;100.00;100632.06;5043676;28;20439;-84
2022/09/24 08:55:47;;;;;;;19.58;12.70;;;;;;;11.72;100.00;100664.66;5046315;28;20421;-83
2022/09/24 08:58:36;;;;;;;18.38;12.35;;;;;;;11.80;100.00;100665.97;5047923;28;20421;-85
2022/09/24 09:01:12;;;;;;;20.27;13.02;;;;;;;11.74;100.00;100671.47;5033586;28;20434;-84
2022/09/24 09:03:48;;;;;;;24.38;14.82;;;;;;;11.66;100.00;100663.91;5056999;28;20434;-83
2022/09/24 09:06:43;;;;;;;24.48;16.45;;;;;;;11.66;100.00;100663.91;5038721;28;20437;-84
2022/09/24 09:09:19;;;;;;;21.38;13.93;;;;;;;11.67;100.00;100668.28;5062542;28;20429;-82
2022/09/24 09:11:58;;;;;;;30.17;18.98;;;;;;;11.60;100.00;100673.25;5050946;28;20427;-83
2022/09/24 09:14:40;;;;;;;25.58;16.92;;;;;;;11.62;100.00;100665.59;5043139;28;20440;-81
2022/09/24 09:17:27;;;;;;;28.58;17.83;;;;;;;11.62;100.00;100664.78;5031873;28;20427;-84
2022/09/24 09:20:03;;;;;;;26.60;17.52;;;;;;;11.67;100.00;100664.72;5035233;28;20431;-81
2022/09/24 09:22:39;;;;;;;23.67;15.32;;;;;;;11.67;100.00;100665.53;5025018;28;20439;-81
2022/09/24 09:25:20;;;;;;;26.38;16.73;;;;;;;11.64;100.00;100671.56;5058687;28;20420;-84
2022/09/24 09:27:56;;;;;;;27.23;16.65;;;;;;;11.64;100.00;100662.56;5028757;28;20439;-82
2022/09/24 09:30:42;;;;;;;26.30;18.15;;;;;;;11.60;100.00;100675.13;5049995;28;20432;-83
2022/09/24 09:33:28;;;;;;;26.63;16.42;;;;;;;11.61;100.00;100666.69;5033232;28;20436;-82
2022/09/24 09:36:12;;;;;;;25.67;16.42;;;;;;;11.56;100.00;100664.81;5029640;28;20793;-83
2022/09/24 09:38:49;;;;;;;25.27;15.60;;;;;;;11.58;100.00;100662.59;5042143;28;20428;-81
2022/09/24 09:41:32;;;;;;;27.60;16.83;;;;;;;11.55;100.00;100659.66;5053571;28;20432;-83
2022/09/24 09:44:16;;;;;;;27.27;15.27;;;;;;;11.45;100.00;100667.91;5023569;28;20442;-83
2022/09/24 09:46:52;;;;;;;26.67;15.32;;;;;;;11.61;100.00;100668.59;5046296;28;20445;-82
2022/09/24 09:49:31;;;;;;;26.23;15.60;;;;;;;11.63;100.00;100659.03;5042443;28;20438;-85
2022/09/24 09:52:13;;;;;;;24.77;15.77;;;;;;;11.57;100.00;100663.72;5024109;28;20431;-83
2022/09/24 09:54:47;;;;;;;24.27;14.98;;;;;;;11.48;100.00;100660.00;5037023;28;20434;-83
2022/09/24 09:57:18;;;;;;;25.05;15.75;;;;;;;11.58;100.00;100667.25;5030411;28;20428;-84
2022/09/24 09:59:55;;;;;;;24.88;15.43;;;;;;;11.60;100.00;100667.78;5022894;28;20424;-84
2022/09/24 10:02:32;;;;;;;22.63;14.83;;;;;;;11.60;100.00;100662.34;5040554;28;20425;-82
2022/09/24 10:05:06;;;;;;;23.48;15.05;;;;;;;11.62;100.00;100665.59;5031089;28;20426;-84
2022/09/24 10:07:44;;;;;;;24.65;15.07;;;;;;;11.67;100.00;100671.00;5056172;28;20430;-85
2022/09/24 10:10:18;;;;;;;23.38;14.40;;;;;;;11.56;100.00;100644.94;5042574;28;20427;-84
2022/09/24 10:12:53;;;;;;;20.98;13.55;;;;;;;11.75;100.00;100666.81;5051947;28;20421;-84
2022/09/24 10:15:26;;;;;;;24.00;14.07;;;;;;;11.74;100.00;100659.75;5024028;28;20431;-81
2022/09/24 10:18:01;;;;;;;24.48;14.40;;;;;;;11.81;100.00;100668.41;5027716;28;20436;-82
2022/09/24 10:20:34;;;;;;;20.63;12.70;;;;;;;11.82;100.00;100670.03;5038518;28;20441;-79
2022/09/24 10:23:18;;;;;;;19.85;12.52;;;;;;;11.71;100.00;100660.31;5040978;28;20441;-84
2022/09/24 10:25:58;;;;;;;20.17;12.73;;;;;;;11.74;100.00;100667.94;5045046;28;20417;-84
2022/09/24 10:31:22;;;;;;;20.50;13.25;;;;;;;11.84;100.00;100667.81;5049674;28;20424;-84
2022/09/24 10:33:58;;;;;;;22.05;13.68;;;;;;;11.89;100.00;100658.75;5028154;28;20426;-85
2022/09/24 10:36:32;;;;;;;20.48;12.95;;;;;;;11.77;100.00;100652.91;5068344;28;20417;-84
2022/09/24 10:39:13;;;;;;;19.67;12.80;;;;;;;11.86;100.00;100659.34;5049944;28;20430;-84
2022/09/24 10:41:48;;;;;;;20.02;12.60;;;;;;;11.74;100.00;100660.56;5029559;28;20441;-85
2022/09/24 10:44:17;;;;;;;18.00;11.32;;;;;;;11.75;100.00;100655.91;5038353;28;20418;-85
2022/09/24 10:46:57;;;;;;;19.15;12.63;;;;;;;11.77;100.00;100661.09;5027642;28;20792;-85
2022/09/24 10:49:47;;;;;;;22.15;13.40;;;;;;;11.79;100.00;100667.06;5058058;28;20430;-83
2022/09/24 10:52:35;;;;;;;21.48;12.55;;;;;;;11.84;100.00;100656.09;5039962;28;20438;-84
2022/09/24 10:55:17;;;;;;;20.55;12.50;;;;;;;11.80;100.00;100660.50;5044895;28;20424;-83
2022/09/24 10:57:58;;;;;;;24.92;12.50;;;;;;;11.70;100.00;100650.53;5045736;28;20434;-85
2022/09/24 11:00:38;;;;;;;22.35;13.05;;;;;;;11.83;100.00;100659.94;5064317;28;20428;-85
2022/09/24 11:03:37;;;;;;;19.30;12.55;;;;;;;11.90;100.00;100654.94;5044471;28;20428;-85
2022/09/24 11:06:18;;;;;;;21.75;12.90;;;;;;;11.87;100.00;100656.31;5032954;28;20434;-84
2022/09/24 11:09:01;;;;;;;20.88;13.23;;;;;;;11.87;100.00;100660.97;5037550;28;20421;-85
2022/09/24 11:11:41;;;;;;;21.00;13.00;;;;;;;11.85;100.00;100660.47;5041023;28;20427;-84
2022/09/24 11:14:23;;;;;;;20.27;12.80;;;;;;;11.73;100.00;100649.94;5063829;28;20409;-85
2022/09/24 11:17:23;;;;;;;21.27;13.20;;;;;;;11.78;100.00;100657.25;5027027;28;20786;-85
2022/09/24 11:20:09;;;;;;;21.15;12.30;;;;;;;11.71;100.00;100652.97;5048736;28;20427;-81
2022/09/24 11:22:51;;;;;;;22.13;12.00;;;;;;;11.76;100.00;100654.81;5072047;28;20430;-86
2022/09/24 11:25:35;;;;;;;22.27;12.80;;;;;;;11.77;100.00;100656.44;5036956;28;20438;-85
2022/09/24 11:28:28;;;;;;;20.65;12.25;;;;;;;11.80;100.00;100650.41;5058846;28;20436;-86
2022/09/24 11:31:12;;;;;;;21.27;11.98;;;;;;;11.87;100.00;100645.41;5032171;28;20429;-85
2022/09/24 11:34:05;;;;;;;17.98;11.60;;;;;;;11.69;100.00;100648.88;5043332;28;20431;-83
2022/09/24 11:36:52;;;;;;;20.90;12.32;;;;;;;11.67;100.00;100654.63;5056777;28;20424;-84
2022/09/24 11:39:41;;;;;;;19.63;12.63;;;;;;;11.74;100.00;100651.56;5031410;28;20458;-84
2022/09/24 11:42:22;;;;;;;23.25;12.95;;;;;;;11.80;100.00;100657.78;5043263;28;20825;-82
2022/09/24 11:45:27;;;;;;;22.75;12.40;;;;;;;11.72;100.00;100661.94;5045197;28;20444;-83
2022/09/24 11:48:31;;;;;;;18.67;11.87;;;;;;;11.79;100.00;100656.16;5045481;28;20795;-85
2022/09/24 11:51:15;;;;;;;18.60;11.77;;;;;;;11.87;100.00;100650.88;5038429;28;20945;-85
2022/09/24 11:53:50;;;;;;;21.50;11.98;;;;;;;11.75;100.00;100655.91;5056203;28;20424;-84
2022/09/24 11:56:24;;;;;;;18.77;12.32;;;;;;;11.77;100.00;100651.00;5022214;28;20462;-84
2022/09/24 11:59:06;;;;;;;18.67;12.38;;;;;;;11.80;100.00;100655.88;5042724;28;20422;-84